Preview of NWS' New Version of Forecast
This preview is not operational and should not be used for support decisions.

Terminal Aerodrome Forecast (TAF)

Issued by National Weather Service (NWS)

                            
842 
FTUS42 KKEY 270448 AAA
TAFEYW
TAF AMD
KEYW 270448Z 2705/2724 14023G36KT P6SM -RA VCSH FEW008 SCT020
      BKN030
      TEMPO 2705/2706 1SM +TSRA BKN008CB OVC020
     FM270900 18030G39KT 5SM -RA SCT012 OVC025
     FM271500 17020G27KT P6SM VCSH SCT015 BKN050=